Tiona, PA (16352)

12:39 PM EST on December 07, 2016 (GMT -0500)
Warren | | Change Station
Active Advisory: Lake Effect Snow Watch

Elev 1243 ft 41.85 °N, 79.14 °W | Updated 32 seconds ago

Partly Cloudy
Partly Cloudy
38.7 °F
Feels Like 39 °F
N
1.7
Wind Variable Wind from South

Today
High -- | Low -- °F
--% Chance of Precip.
Yesterday
High -- | Low -- °F
Precip. -- in
Pressure 29.99 in
Visibility 10.0 miles
Clouds Few 2200 ft
Windchill 39 °F
Dew Point 28 °F
Humidity 64%
Rainfall 0.02 in
Snow Depth Not available.
7:30 AM 4:45 PM
First Quarter, 54% visible
METAR KBFD 071653Z AUTO 27008KT 10SM FEW022 01/M04 A2994 RMK AO2 SLP156 T00061039
Pressure 29.99 in
Visibility 10.0 miles
Clouds Few 2200 ft
Windchill 39 °F
Dew Point 28 °F
Humidity 64%
Rainfall 0.02 in
Snow Depth Not available.
7:30 AM 4:45 PM
First Quarter, 54% visible
METAR KBFD 071653Z AUTO 27008KT 10SM FEW022 01/M04 A2994 RMK AO2 SLP156 T00061039

10-Day Weather Forecast

Almanac

Astronomy

Dec. 07, 2016 Rise Set
Actual Time
Civil Twilight
Nautical Twilight
Astronomical Twilight
Moon
Length of Visible Light
Length of Day
Tomorrow will be .
, % of the Moon is Illuminated

Today's Extremes

State Highs State Lows

Community

WunderPhotos

Upload Photos

1,956,155 photos uploaded!

WunderBlog® & News

Nearby

Air Quality

  Air Quality AQ Index Pollutant
Not available.

Snow Depth

Station Depth Elevation

Earthquake Activity

City Distance Mag. Time & Date
Minimum magnitude displayed is 2.5.

Coastal Water Temperatures

Place Temperature

Stations

Nearby Weather Stations

Station Location Temp. Windchill Dew Point Humidity Wind Precip. Elev Updated Type
                   

Watches & Warnings

Lake Effect Snow Watch
Issued: 5:49 AM EST Dec. 7, 2016 – National Weather Service

... Lake effect snow watch remains in effect from Thursday
afternoon through Saturday morning...

* locations... Warren and McKean counties.

* Accumulations... over 6 inches possible, especially over
northwest Warren County.

* Timing... the heaviest snow is expected to fall Thursday night
through Friday night.

* Impacts... poor driving conditions are expected. If possible,
avoid travel Thursday night through Saturday morning.

* Winds... west 10 to 15 mph with gusts up to 30 mph.

Precautionary/preparedness actions...

Review winter weather safety and preparedness information at
weather.Gov/winter.